Flight Track Log - Related Links

Times and Time Zones

All times are in EDT time to prevent confusion due to time zone crossing. See the EGF2849 flight status page for this flight to view local times or setup timezone preferences in your user account.

Time Position Orientation Groundspeed Altitude Reporting Facility
EDT Latitude Longitude Course Direction KTS MPH feet Rate Location/Type
Fri 10:21:15 PM 32.8749 -97.0367 232° Southwest  Level FlightAware Approximate
Fri 10:22:15 PM 32.7871 -97.0667 10° North  Level FlightAware Approximate
Fri 10:22:48 PM 32.8656 -97.0508 191° South 160 184 2,300  Level FAA TRACON SMA TRACON (SMA)
Fri 10:23:28 PM 32.8281 -97.0594 199° South 205 236 3,600 1,950 Climbing FAA TRACON SMA TRACON (SMA)
Fri 10:24:08 PM 32.7903 -97.0747 238° Southwest 235 270 4,900 1,950 Climbing FAA TRACON SMA TRACON (SMA)
Fri 10:24:48 PM 32.7658 -97.1217 268° West 261 300 6,200 2,175 Climbing FAA TRACON SMA TRACON (SMA)
Fri 10:25:28 PM 32.7642 -97.1750 276° West 264 304 7,800 2,313 Climbing FAA TRACON SMA TRACON (SMA)
Fri 10:26:11 PM 32.7706 -97.2422 294° West 268 308 9,400 1,875 Climbing FAA TRACON SMA TRACON (SMA)
Fri 10:26:48 PM 32.7906 -97.2950 298° West 287 330 10,300 1,091 Climbing FAA TRACON SMA TRACON (SMA)
Fri 10:27:28 PM 32.8158 -97.3517 294° West 316 364 10,800 975 Climbing FAA TRACON SMA TRACON (SMA)
Fri 10:28:08 PM 32.8417 -97.4214 294° West 332 382 11,600 1,350 Climbing FAA TRACON SMA TRACON (SMA)
Fri 10:28:48 PM 32.8681 -97.4919 294° West 338 389 12,600 1,481 Climbing FAA TRACON SMA TRACON (SMA)
Fri 10:29:29 PM 32.8914 -97.5558 293° West 340 391 13,600 1,500 Climbing FAA TRACON SMA TRACON (SMA)
Fri 10:30:08 PM 32.9172 -97.6281 294° West 342 394 14,600 1,443 Climbing FAA TRACON SMA TRACON (SMA)
Fri 10:30:48 PM 32.9411 -97.6928 294° West 347 399 15,500 1,500 Climbing FAA TRACON SMA TRACON (SMA)
Fri 10:31:28 PM 32.9686 -97.7653 293° West 346 398 16,600 1,575 Climbing FAA TRACON SMA TRACON (SMA)
Fri 10:32:08 PM 32.9947 -97.8386 294° West 347 399 17,600 1,575 Climbing FAA TRACON SMA TRACON (SMA)
Fri 10:32:48 PM 33.0186 -97.9039 294° West 349 402 18,700 1,556 Climbing FAA TRACON SMA TRACON (SMA)
Fri 10:33:29 PM 33.0467 -97.9775 294° West 351 404 19,700 1,556 Climbing FAA TRACON SMA TRACON (SMA)
Fri 10:34:09 PM 33.0739 -98.0522 292° West 355 409 20,800 1,519 Climbing FAA TRACON SMA TRACON (SMA)
Fri 10:34:48 PM 33.0969 -98.1194 295° West 355 409 21,700 1,443 Climbing FAA TRACON SMA TRACON (SMA)
Fri 10:35:28 PM 33.1261 -98.1944 289° West 358 412 22,700 1,333 Climbing FAA TRACON SMA TRACON (SMA)
Fri 10:36:00 PM 33.1394 -98.2397 293° West 357 411 23,300 1,435 Climbing Fort Worth Center
Fri 10:37:00 PM 33.1825 -98.3617 293° West 357 411 24,900 1,400 Climbing Fort Worth Center
Fri 10:38:00 PM 33.2131 -98.4489 294° West 357 411 26,100 1,400 Climbing Fort Worth Center
Fri 10:39:00 PM 33.2539 -98.5611 292° West 351 404 27,700 1,550 Climbing Fort Worth Center
Fri 10:40:00 PM 33.2906 -98.6683 294° West 351 404 29,200 1,150 Climbing Fort Worth Center
Fri 10:41:00 PM 33.3311 -98.7758 293° West 352 405 30,000 400 Climbing Fort Worth Center
Fri 10:42:00 PM 33.3694 -98.8858 292° West 358 412 30,000  Level Fort Worth Center
Fri 10:43:00 PM 33.4097 -99.0036 293° West 364 419 30,000  Level Fort Worth Center
Fri 10:44:00 PM 33.4500 -99.1189 293° West 369 425 30,000  Level Fort Worth Center
Fri 10:45:00 PM 33.4922 -99.2367 293° West 375 432 30,000  Level Fort Worth Center
Fri 10:46:00 PM 33.5342 -99.3547 291° West 380 437 30,000  Level Fort Worth Center
Fri 10:47:00 PM 33.5739 -99.4778 293° West 385 443 30,000  Level Fort Worth Center
Fri 10:48:00 PM 33.6158 -99.5986 293° West 395 455 30,000  Level Fort Worth Center
Fri 10:49:00 PM 33.6575 -99.7192 293° West 395 455 30,000  Level Fort Worth Center
Fri 10:50:00 PM 33.7011 -99.8453 292° West 395 455 30,000  Level Fort Worth Center
Fri 10:51:00 PM 33.7403 -99.9639 292° West 395 455 30,000  Level Fort Worth Center
Fri 10:52:00 PM 33.7817 -100.0850 291° West 395 455 30,000  Level Fort Worth Center
Fri 10:53:00 PM 33.8206 -100.2086 293° West 395 455 30,000  Level Fort Worth Center
Fri 10:54:00 PM 33.8639 -100.3300 291° West 395 455 30,000  Level Fort Worth Center
Fri 10:55:00 PM 33.9025 -100.4539 294° West 395 455 30,000  Level Fort Worth Center
Fri 10:56:00 PM 33.9456 -100.5731 291° West 395 455 30,000  Level Fort Worth Center
Fri 10:57:00 PM 33.9842 -100.6972 291° West 395 455 30,000  Level Fort Worth Center
Fri 10:58:00 PM 34.0228 -100.8164 293° West 395 455 30,000  Level Fort Worth Center
Fri 10:59:00 PM 34.0692 -100.9486 291° West 395 455 30,000  Level Fort Worth Center
Fri 11:00:00 PM 34.1072 -101.0706 292° West 395 455 30,000  Level Fort Worth Center
Fri 11:01:00 PM 34.1475 -101.1928 292° West 395 455 30,000  Level Fort Worth Center
Fri 11:02:00 PM 34.1875 -101.3125 290° West 395 455 30,000  Level Fort Worth Center
Fri 11:03:00 PM 34.2253 -101.4372 293° West 395 455 30,000  Level Fort Worth Center
Fri 11:04:00 PM 34.2656 -101.5522 291° West 395 455 30,000  Level Fort Worth Center
Fri 11:05:00 PM 34.3050 -101.6797 291° West 400 460 30,000  Level Fort Worth Center
Fri 11:06:00 PM 34.3444 -101.8025 293° West 395 455 30,000  Level Fort Worth Center
Fri 11:07:00 PM 34.3842 -101.9178 290° West 395 455 30,000  Level Fort Worth Center
Fri 11:09:01 PM 34.4553 -102.1575 291° West 400 460 30,000  Level Albuquerque Center
Fri 11:10:01 PM 34.4942 -102.2833 292° West 400 460 30,000  Level Albuquerque Center
Fri 11:11:01 PM 34.5347 -102.4069 290° West 400 460 30,000  Level Albuquerque Center
Fri 11:12:01 PM 34.5711 -102.5283 292° West 400 460 30,000  Level Albuquerque Center
Fri 11:13:01 PM 34.6114 -102.6497 291° West 395 455 30,000  Level Albuquerque Center
Fri 11:14:01 PM 34.6494 -102.7711 291° West 394 453 30,000  Level Albuquerque Center
Fri 11:15:01 PM 34.6875 -102.8928 291° West 389 448 30,000  Level Albuquerque Center
Fri 11:16:01 PM 34.7253 -103.0147 289° West 384 442 30,000  Level Albuquerque Center
Fri 11:17:01 PM 34.7611 -103.1392 290° West 384 442 30,000  Level Albuquerque Center
Fri 11:18:01 PM 34.7989 -103.2636 291° West 384 442 30,000  Level Albuquerque Center
Fri 11:19:01 PM 34.8408 -103.3956 290° West 384 442 30,000  Level Albuquerque Center
Fri 11:20:01 PM 34.8783 -103.5206 290° West 390 449 30,000  Level Albuquerque Center
Fri 11:21:01 PM 34.9156 -103.6453 290° West 390 449 30,000  Level Albuquerque Center
Fri 11:22:01 PM 34.9528 -103.7728 289° West 390 449 30,000  Level Albuquerque Center
Fri 11:23:01 PM 34.9878 -103.8956 291° West 395 455 30,000  Level Albuquerque Center
Fri 11:24:01 PM 35.0267 -104.0206 289° West 395 455 30,000  Level Albuquerque Center
Fri 11:25:01 PM 35.0614 -104.1461 289° West 400 460 30,000  Level Albuquerque Center
Fri 11:26:01 PM 35.0936 -104.2617 291° West 400 460 30,000  Level Albuquerque Center
Fri 11:27:01 PM 35.1322 -104.3844 290° West 400 460 30,000  Level Albuquerque Center
Fri 11:28:01 PM 35.1689 -104.5103 290° West 400 460 30,000 -50 Level Albuquerque Center
Fri 11:29:01 PM 35.2097 -104.6511 290° West 400 460 29,900 -350 Descending Albuquerque Center
Fri 11:30:01 PM 35.2458 -104.7747 289° West 395 455 29,300 -600 Descending Albuquerque Center
Fri 11:31:01 PM 35.2817 -104.9006 289° West 395 455 28,700 -600 Descending Albuquerque Center
Fri 11:32:01 PM 35.3156 -105.0192 289° West 383 441 28,100 -1,150 Descending Albuquerque Center
Fri 11:33:01 PM 35.3489 -105.1381 289° West 378 435 26,400 -2,050 Descending Albuquerque Center
Fri 11:34:01 PM 35.3803 -105.2492 289° West 360 414 24,000 -2,500 Descending Albuquerque Center
Fri 11:35:01 PM 35.4092 -105.3531 291° West 337 388 21,400 -2,550 Descending Albuquerque Center
Fri 11:36:01 PM 35.4400 -105.4542 288° West 323 372 18,900 -2,350 Descending Albuquerque Center
Fri 11:37:01 PM 35.4644 -105.5481 290° West 307 353 16,700 -1,800 Descending Albuquerque Center
Fri 11:38:01 PM 35.4886 -105.6292 281° West 292 336 15,300 -1,350 Descending Albuquerque Center
Fri 11:39:01 PM 35.5022 -105.7181 282° West 273 314 14,000 -1,350 Descending Albuquerque Center
Fri 11:40:01 PM 35.5158 -105.7994 279° West 260 299 12,600 -1,400 Descending Albuquerque Center
Fri 11:41:01 PM 35.5275 -105.8911 278° West 250 288 11,200 -1,200 Descending Albuquerque Center
Fri 11:42:01 PM 35.5367 -105.9675 275° West 244 281 10,200 -650 Descending Albuquerque Center
Fri 11:43:01 PM 35.5417 -106.0364 271° West 224 258 9,900 -900 Descending Albuquerque Center
Fri 11:44:01 PM 35.5422 -106.0797 309° West 182 209 8,400 -1,300 Descending Albuquerque Center
Fri 11:45:01 PM 35.5656 -106.1150 17° North 140 161 7,300 -1,000 Descending Albuquerque Center
Fri 11:46:01 PM 35.6008 -106.1017 299° West 102 117 6,400 -450 Descending Albuquerque Center
Fri 11:47:01 PM 35.6181 -106.1397 299° West 102 117 6,400  Level Albuquerque Center

Login

Don't have an account? Register now (free) for customized features, flight alerts, and more!